Time;durP1;ratioP1;P1;durP2;ratioP2;P2;SDS_P1;SDS_P2;PMS_P1;PMS_P2;Temp;Humidity;BMP_temperature;BMP_pressure;BME280_temperature;BME280_humidity;BME280_pressure;Samples;Min_cycle;Max_cycle;Signal;HPM_P1;HPM_P2
2023/11/11 00:00:06;;;;;;;1.20;1.10;;;;;;;7.65;75.01;94356.49;106694;1274;25381;-82
2023/11/11 00:02:55;;;;;;;1.30;1.20;;;;;;;7.63;74.91;94356.20;107009;1274;22520;-82
2023/11/11 00:05:24;;;;;;;1.20;1.10;;;;;;;7.60;74.79;94354.35;106984;1274;25544;-82
2023/11/11 00:07:52;;;;;;;1.00;0.90;;;;;;;7.55;74.72;94353.78;106991;1275;22653;-82
2023/11/11 00:10:20;;;;;;;0.80;0.70;;;;;;;7.49;74.76;94355.13;107013;1274;24482;-82
2023/11/11 00:12:48;;;;;;;1.00;0.90;;;;;;;7.45;74.88;94347.94;106967;1274;26532;-82
2023/11/11 00:15:17;;;;;;;0.90;0.80;;;;;;;7.41;74.86;94346.45;106624;1274;24394;-82
2023/11/11 00:17:45;;;;;;;1.00;0.90;;;;;;;7.35;74.86;94341.33;106625;1274;24339;-83
2023/11/11 00:20:13;;;;;;;0.70;0.70;;;;;;;7.32;75.05;94342.66;106682;1252;22654;-82
2023/11/11 00:22:43;;;;;;;1.10;1.00;;;;;;;7.28;75.30;94338.39;106644;1275;25352;-82
2023/11/11 00:25:18;;;;;;;0.90;0.80;;;;;;;7.25;75.47;94335.49;106673;1275;26511;-82
2023/11/11 00:27:46;;;;;;;0.80;0.80;;;;;;;7.21;75.50;94328.27;106659;1260;23362;-82
2023/11/11 00:30:14;;;;;;;0.70;0.70;;;;;;;7.18;75.62;94330.59;106640;1275;22530;-82
2023/11/11 00:32:44;;;;;;;0.80;0.80;;;;;;;7.14;75.73;94324.23;106597;1275;23010;-82
2023/11/11 00:35:13;;;;;;;0.90;0.90;;;;;;;7.10;76.10;94319.27;106998;1275;25298;-81
2023/11/11 00:37:41;;;;;;;0.80;0.80;;;;;;;7.08;75.88;94320.02;106989;1275;24257;-81
2023/11/11 00:40:10;;;;;;;1.80;0.70;;;;;;;7.05;76.25;94313.98;106697;1257;22613;-81
2023/11/11 00:42:39;;;;;;;1.30;0.70;;;;;;;7.03;76.09;94315.60;106969;1275;24260;-82
2023/11/11 00:45:07;;;;;;;0.80;0.80;;;;;;;7.00;76.14;94313.92;107022;1275;25351;-82
2023/11/11 00:47:36;;;;;;;0.70;0.70;;;;;;;6.97;76.24;94307.53;106946;1275;22644;-81
2023/11/11 00:50:05;;;;;;;0.80;0.80;;;;;;;6.94;76.34;94304.98;107034;1275;25580;-81
2023/11/11 00:52:34;;;;;;;1.90;1.20;;;;;;;6.92;76.22;94307.30;106975;1275;23921;-82
2023/11/11 00:55:03;;;;;;;1.70;1.20;;;;;;;6.91;76.23;94307.51;107022;1275;24395;-82
2023/11/11 00:57:32;;;;;;;2.30;1.60;;;;;;;6.89;76.25;94302.64;107064;1275;22524;-82
2023/11/11 00:59:59;;;;;;;2.10;1.60;;;;;;;6.88;76.20;94304.08;107010;1275;22526;-81
2023/11/11 01:02:28;;;;;;;3.00;1.70;;;;;;;6.87;76.15;94298.68;106855;1275;22553;-82
2023/11/11 01:04:56;;;;;;;2.40;2.10;;;;;;;6.86;76.05;94299.07;106669;1275;25423;-81
2023/11/11 01:07:24;;;;;;;3.10;2.00;;;;;;;6.86;76.15;94293.13;106594;1275;22519;-82
2023/11/11 01:09:52;;;;;;;2.90;2.10;;;;;;;6.88;76.21;94292.38;106636;1275;22536;-82
2023/11/11 01:12:22;;;;;;;3.60;2.20;;;;;;;6.91;76.11;94289.33;106620;1275;22822;-81
2023/11/11 01:14:51;;;;;;;3.70;2.50;;;;;;;6.92;76.12;94285.45;106490;1275;273187;-81
2023/11/11 01:17:19;;;;;;;4.10;2.60;;;;;;;6.92;75.72;94289.81;106760;1275;22681;-81
2023/11/11 01:19:47;;;;;;;7.10;3.00;;;;;;;6.91;75.94;94289.50;107034;1275;24273;-81
2023/11/11 01:22:19;;;;;;;6.10;3.00;;;;;;;6.94;75.59;94283.48;106996;1275;22524;-81
2023/11/11 01:24:47;;;;;;;6.00;3.20;;;;;;;6.99;76.01;94288.27;107068;1275;25243;-81
2023/11/11 01:27:16;;;;;;;4.50;3.00;;;;;;;6.98;75.44;94287.77;106926;1275;24386;-81
2023/11/11 01:29:44;;;;;;;5.40;4.10;;;;;;;6.91;75.45;94286.18;106627;1275;24386;-82
2023/11/11 01:32:12;;;;;;;4.40;3.60;;;;;;;6.88;75.15;94283.64;106628;1275;22874;-81
2023/11/11 01:34:41;;;;;;;7.10;4.00;;;;;;;6.82;75.06;94285.54;106922;1275;25423;-81
2023/11/11 01:37:09;;;;;;;4.40;3.60;;;;;;;6.77;75.29;94281.45;106997;1275;24833;-80
2023/11/11 01:39:37;;;;;;;6.40;4.30;;;;;;;6.71;75.27;94276.36;106631;1275;25383;-82
2023/11/11 01:42:06;;;;;;;5.40;3.90;;;;;;;6.60;75.42;94275.42;106624;1275;22681;-82
2023/11/11 01:44:34;;;;;;;7.40;4.20;;;;;;;6.48;75.75;94279.02;106817;1275;22530;-82
2023/11/11 01:47:06;;;;;;;6.80;4.60;;;;;;;6.35;76.12;94275.67;106955;1275;22742;-81
2023/11/11 01:49:36;;;;;;;8.00;4.40;;;;;;;6.26;76.20;94275.00;107018;1275;22526;-81
2023/11/11 01:52:06;;;;;;;6.70;5.20;;;;;;;6.18;76.54;94271.34;106985;1275;25569;-81
2023/11/11 01:54:37;;;;;;;9.50;5.20;;;;;;;6.11;76.68;94274.81;106631;1275;25317;-81
2023/11/11 01:57:06;;;;;;;7.50;5.50;;;;;;;6.04;76.65;94268.52;106686;1275;22590;-81
2023/11/11 01:59:37;;;;;;;7.70;5.30;;;;;;;5.98;76.61;94267.44;106600;1275;24286;-81
2023/11/11 02:02:06;;;;;;;7.40;4.90;;;;;;;5.92;77.24;94269.46;106621;1275;25419;-81
2023/11/11 02:04:34;;;;;;;7.50;4.70;;;;;;;5.88;77.11;94266.92;106607;1275;25431;-81
2023/11/11 02:07:05;;;;;;;8.30;5.90;;;;;;;5.85;77.20;94266.11;106674;1274;22637;-81
2023/11/11 02:09:34;;;;;;;6.30;5.10;;;;;;;5.86;77.61;94269.04;106670;1274;25426;-81
2023/11/11 02:12:04;;;;;;;8.50;5.00;;;;;;;5.88;77.78;94270.94;106696;1274;22536;-81
2023/11/11 02:14:35;;;;;;;6.80;4.90;;;;;;;5.85;78.14;94269.59;106749;1274;22534;-81
2023/11/11 02:17:03;;;;;;;6.60;4.90;;;;;;;5.83;78.68;94267.89;106630;1274;25420;-81
2023/11/11 02:19:32;;;;;;;7.00;5.30;;;;;;;5.84;78.84;94266.13;106731;1275;25355;-81
2023/11/11 02:22:00;;;;;;;6.70;5.00;;;;;;;5.81;78.72;94267.95;106668;1275;25416;-81
2023/11/11 02:24:30;;;;;;;8.00;5.40;;;;;;;5.78;79.29;94261.19;106684;1274;25559;-81
2023/11/11 02:26:58;;;;;;;9.50;5.40;;;;;;;5.74;79.78;94257.44;106733;1274;25394;-81
2023/11/11 02:29:28;;;;;;;10.30;5.60;;;;;;;5.69;79.88;94253.89;106633;1274;24251;-81
2023/11/11 02:31:56;;;;;;;7.10;4.60;;;;;;;5.69;79.89;94256.52;106636;1274;26575;-81
2023/11/11 02:34:25;;;;;;;7.50;5.10;;;;;;;5.63;79.72;94252.61;106752;1274;22949;-81
2023/11/11 02:36:53;;;;;;;7.00;5.00;;;;;;;5.62;80.15;94251.09;106646;1274;23910;-81
2023/11/11 02:39:30;;;;;;;7.50;5.70;;;;;;;5.63;80.35;94251.40;106628;1271;22523;-81
2023/11/11 02:41:59;;;;;;;7.00;5.10;;;;;;;5.66;80.32;94251.70;106697;1275;22517;-81
2023/11/11 02:44:27;;;;;;;7.60;4.80;;;;;;;5.65;80.15;94255.19;106620;1274;25250;-81
2023/11/11 02:46:55;;;;;;;9.00;5.50;;;;;;;5.67;80.40;94253.23;106626;1275;22542;-81
2023/11/11 02:49:23;;;;;;;8.10;5.20;;;;;;;5.69;80.68;94249.54;106519;1274;22539;-80
2023/11/11 02:51:52;;;;;;;7.70;5.80;;;;;;;5.71;80.76;94249.67;106642;1274;24345;-81
2023/11/11 02:54:20;;;;;;;6.50;5.00;;;;;;;5.70;80.54;94252.14;106732;1274;22608;-81
2023/11/11 02:56:48;;;;;;;8.60;5.10;;;;;;;5.71;80.43;94250.54;106659;1274;25293;-81
2023/11/11 02:59:16;;;;;;;9.20;5.20;;;;;;;5.69;80.64;94247.95;106665;1275;24293;-81
2023/11/11 03:01:44;;;;;;;7.70;5.90;;;;;;;5.67;80.76;94240.67;106732;1275;25647;-81
2023/11/11 03:04:12;;;;;;;6.00;5.00;;;;;;;5.62;80.90;94235.02;106665;1275;22535;-79
2023/11/11 03:06:46;;;;;;;7.60;5.10;;;;;;;5.61;81.42;94232.77;106614;1271;25501;-81
2023/11/11 03:09:15;;;;;;;5.60;4.20;;;;;;;5.58;80.98;94237.19;106669;1275;22608;-81
2023/11/11 03:11:43;;;;;;;7.30;4.20;;;;;;;5.52;80.95;94236.81;106635;1275;22703;-81
2023/11/11 03:14:19;;;;;;;5.60;4.30;;;;;;;5.49;80.97;94235.48;106636;1259;22523;-81
2023/11/11 03:16:47;;;;;;;7.30;4.60;;;;;;;5.48;81.09;94233.23;106691;1275;22523;-81
2023/11/11 03:19:16;;;;;;;7.00;4.60;;;;;;;5.46;81.10;94231.88;106629;1275;25487;-80
2023/11/11 03:21:44;;;;;;;6.20;5.10;;;;;;;5.43;81.26;94228.44;106632;1275;22541;-81
2023/11/11 03:24:12;;;;;;;6.30;4.70;;;;;;;5.40;82.05;94227.63;106783;1275;24480;-81
2023/11/11 03:26:40;;;;;;;6.30;4.30;;;;;;;5.35;81.90;94224.77;106662;1275;22643;-81
2023/11/11 03:29:09;;;;;;;9.50;6.30;;;;;;;5.35;82.21;94220.60;106625;1275;25419;-81
2023/11/11 03:31:37;;;;;;;7.60;5.30;;;;;;;5.36;82.09;94222.84;106641;1275;24402;-81
2023/11/11 03:34:05;;;;;;;7.60;5.90;;;;;;;5.37;81.92;94220.03;106598;1275;25400;-81
2023/11/11 03:36:33;;;;;;;6.60;5.30;;;;;;;5.37;82.30;94217.58;106688;1275;22547;-81
2023/11/11 03:39:02;;;;;;;7.50;5.40;;;;;;;5.36;82.01;94218.65;106658;1275;24281;-81
2023/11/11 03:41:30;;;;;;;6.80;5.20;;;;;;;5.34;82.13;94214.52;106659;1275;22518;-81
2023/11/11 03:43:59;;;;;;;10.30;6.30;;;;;;;5.31;83.01;94210.91;106693;1275;22909;-81
2023/11/11 03:46:27;;;;;;;8.30;5.60;;;;;;;5.28;83.74;94209.77;106631;1275;24218;-82
2023/11/11 03:48:55;;;;;;;10.80;6.60;;;;;;;5.26;83.78;94212.42;106613;1275;22646;-82
2023/11/11 03:51:23;;;;;;;8.80;6.40;;;;;;;5.25;83.92;94207.39;106696;1275;22589;-82
2023/11/11 03:53:52;;;;;;;8.90;6.00;;;;;;;5.26;83.58;94203.68;106635;1275;26743;-82
2023/11/11 03:56:21;;;;;;;9.30;6.50;;;;;;;5.29;83.75;94194.91;106613;1275;24916;-82
2023/11/11 03:58:49;;;;;;;8.70;5.80;;;;;;;5.31;84.17;94202.90;106640;1275;22794;-81
2023/11/11 04:01:17;;;;;;;7.30;5.00;;;;;;;5.32;83.76;94204.27;106631;1274;22521;-81
2023/11/11 04:03:45;;;;;;;10.10;6.60;;;;;;;5.32;84.12;94195.19;106604;1275;25719;-82
2023/11/11 04:06:14;;;;;;;9.40;7.00;;;;;;;5.32;84.42;94197.28;106723;1275;25352;-81
2023/11/11 04:08:42;;;;;;;34.30;17.00;;;;;;;5.33;84.40;94201.11;106632;1275;25524;-81
2023/11/11 04:11:10;;;;;;;28.20;15.00;;;;;;;5.35;84.66;94191.65;106637;1275;22523;-82
2023/11/11 04:13:40;;;;;;;16.10;9.60;;;;;;;5.40;84.34;94199.38;106504;1275;22530;-81
2023/11/11 04:16:13;;;;;;;12.60;7.90;;;;;;;5.39;84.04;94202.03;106649;1275;25463;-81
2023/11/11 04:18:41;;;;;;;10.30;8.30;;;;;;;5.37;84.48;94196.66;106706;1275;26658;-82
2023/11/11 04:21:11;;;;;;;12.90;8.70;;;;;;;5.37;84.52;94200.52;106669;1275;23264;-81
2023/11/11 04:23:42;;;;;;;12.00;8.10;;;;;;;5.38;84.72;94203.27;106607;1275;24218;-81
2023/11/11 04:26:11;;;;;;;21.70;7.50;;;;;;;5.38;84.58;94204.83;106717;1275;25273;-80
2023/11/11 04:28:42;;;;;;;11.50;7.00;;;;;;;5.39;84.67;94205.85;106617;1275;22532;-81
2023/11/11 04:31:12;;;;;;;10.00;6.70;;;;;;;5.40;84.81;94200.25;106628;1275;22527;-81
2023/11/11 04:33:40;;;;;;;13.20;7.10;;;;;;;5.41;84.66;94201.63;106702;1275;22532;-81
2023/11/11 04:36:09;;;;;;;10.30;7.50;;;;;;;5.37;84.99;94195.79;106613;1275;22523;-80
2023/11/11 04:38:37;;;;;;;14.50;8.70;;;;;;;5.36;85.50;94189.17;106643;1275;24097;-80
2023/11/11 04:41:05;;;;;;;16.50;10.90;;;;;;;5.39;85.29;94186.50;106644;1275;24285;-80
2023/11/11 04:43:34;;;;;;;22.30;13.40;;;;;;;5.40;84.88;94181.59;106705;1275;24281;-80
2023/11/11 04:46:03;;;;;;;18.90;11.10;;;;;;;5.36;85.09;94182.38;106671;1275;25425;-80
2023/11/11 04:48:31;;;;;;;15.60;8.10;;;;;;;5.41;85.48;94178.08;106707;1275;25308;-81
2023/11/11 04:50:59;;;;;;;9.80;6.90;;;;;;;5.47;85.26;94178.66;106640;1275;23884;-82
2023/11/11 04:53:28;;;;;;;9.80;7.00;;;;;;;5.45;84.93;94174.69;106643;1275;22574;-80
2023/11/11 04:55:56;;;;;;;13.00;6.70;;;;;;;5.41;84.84;94182.80;106726;1275;22468;-81
2023/11/11 04:58:24;;;;;;;11.80;6.60;;;;;;;5.47;85.28;94189.11;106628;1275;25422;-81
2023/11/11 05:00:52;;;;;;;13.80;7.20;;;;;;;5.42;85.03;94194.28;106636;1275;25498;-80
2023/11/11 05:03:21;;;;;;;10.20;7.00;;;;;;;5.36;85.06;94193.73;106642;1275;25345;-81
2023/11/11 05:05:49;;;;;;;11.10;7.80;;;;;;;5.39;85.26;94189.81;106624;1275;22550;-80
2023/11/11 05:08:17;;;;;;;11.40;7.60;;;;;;;5.42;85.10;94191.83;106713;1275;22516;-80
2023/11/11 05:10:45;;;;;;;12.00;7.30;;;;;;;5.44;84.68;94193.90;106645;1275;22584;-80
2023/11/11 05:13:18;;;;;;;11.60;6.70;;;;;;;5.41;84.58;94195.35;106650;1275;22945;-80
2023/11/11 05:15:58;;;;;;;9.60;6.40;;;;;;;5.39;84.64;94192.26;106758;1274;22539;-80
2023/11/11 05:18:27;;;;;;;18.00;10.50;;;;;;;5.34;84.96;94195.15;106641;1275;23006;-80
2023/11/11 05:20:55;;;;;;;26.40;15.90;;;;;;;5.27;86.15;94196.16;106630;1275;22588;-80
2023/11/11 05:23:23;;;;;;;26.20;17.30;;;;;;;5.23;85.65;94198.34;107021;1275;23063;-80
2023/11/11 05:25:52;;;;;;;22.10;15.10;;;;;;;5.20;86.21;94197.54;106869;1275;23979;-80
2023/11/11 05:28:20;;;;;;;18.20;10.80;;;;;;;5.19;86.10;94197.72;106667;1275;25732;-80
2023/11/11 05:30:48;;;;;;;11.50;7.60;;;;;;;5.18;86.19;94198.09;106702;1275;25437;-80
2023/11/11 05:33:18;;;;;;;11.80;7.70;;;;;;;5.17;86.16;94198.46;106631;1275;24356;-81
2023/11/11 05:35:47;;;;;;;15.90;9.60;;;;;;;5.16;86.57;94200.91;106616;1275;22523;-80
2023/11/11 05:38:15;;;;;;;17.60;12.20;;;;;;;5.19;86.81;94198.77;106633;1275;22573;-80
2023/11/11 05:40:44;;;;;;;18.20;10.80;;;;;;;5.19;86.59;94202.43;106599;1275;22527;-80
2023/11/11 05:43:12;;;;;;;15.80;10.30;;;;;;;5.20;86.40;94198.58;106685;1275;22633;-80
2023/11/11 05:45:40;;;;;;;20.40;15.60;;;;;;;5.23;86.69;94200.61;106643;1274;25239;-80
2023/11/11 05:48:09;;;;;;;13.20;10.30;;;;;;;5.21;86.85;94200.83;106659;1274;22523;-80
2023/11/11 05:50:37;;;;;;;16.80;10.80;;;;;;;5.17;87.60;94204.39;106729;1274;22761;-80
2023/11/11 05:53:05;;;;;;;16.90;12.10;;;;;;;5.16;87.36;94212.77;106626;1274;26564;-80
2023/11/11 05:55:33;;;;;;;17.90;12.70;;;;;;;5.16;87.59;94212.41;106654;1274;22654;-80
2023/11/11 05:58:02;;;;;;;23.80;17.70;;;;;;;5.18;87.78;94210.64;106752;1274;22565;-80
2023/11/11 06:00:30;;;;;;;29.50;20.80;;;;;;;5.19;88.55;94210.09;106683;1274;22801;-80
2023/11/11 06:02:58;;;;;;;33.70;24.50;;;;;;;5.19;88.60;94209.23;106602;1274;24343;-80
2023/11/11 06:05:27;;;;;;;28.80;19.10;;;;;;;5.20;88.90;94208.70;106709;1274;22521;-80
2023/11/11 06:07:55;;;;;;;16.80;12.70;;;;;;;5.24;88.51;94208.96;106640;1274;22510;-80
2023/11/11 06:10:23;;;;;;;26.60;18.80;;;;;;;5.31;88.45;94207.94;106643;1274;22539;-80
2023/11/11 06:12:52;;;;;;;23.30;16.60;;;;;;;5.38;88.67;94202.73;106731;1268;26093;-80
2023/11/11 06:15:22;;;;;;;17.50;12.70;;;;;;;5.45;88.06;94209.73;106673;1274;24265;-80
2023/11/11 06:17:50;;;;;;;31.10;21.40;;;;;;;5.47;88.13;94214.93;106747;1275;22665;-80
2023/11/11 06:20:19;;;;;;;28.20;19.60;;;;;;;5.49;88.03;94212.81;106622;1274;22635;-80
2023/11/11 06:22:51;;;;;;;27.80;21.30;;;;;;;5.50;88.06;94204.91;106723;1274;25329;-80
2023/11/11 06:25:22;;;;;;;32.90;24.40;;;;;;;5.51;88.26;94204.20;106667;1274;22511;-80
2023/11/11 06:27:51;;;;;;;21.40;15.60;;;;;;;5.52;88.16;94215.36;106686;1274;23637;-80
2023/11/11 06:30:20;;;;;;;21.80;15.20;;;;;;;5.56;88.06;94217.71;106683;1274;24269;-80
2023/11/11 06:32:52;;;;;;;25.40;18.50;;;;;;;5.59;88.18;94221.48;106799;1274;26638;-80
2023/11/11 06:35:24;;;;;;;59.30;35.90;;;;;;;5.65;88.25;94223.45;106521;1274;25755;-80
2023/11/11 06:37:53;;;;;;;31.30;22.10;;;;;;;5.73;88.31;94223.11;106636;1274;22549;-81
2023/11/11 06:40:23;;;;;;;19.10;13.10;;;;;;;5.79;88.46;94216.34;106730;1275;25721;-80
2023/11/11 06:42:55;;;;;;;14.60;10.50;;;;;;;5.86;88.37;94212.15;106726;1274;24222;-79
2023/11/11 06:45:24;;;;;;;14.50;11.80;;;;;;;5.93;88.22;94211.67;106734;1274;22532;-80
2023/11/11 06:47:52;;;;;;;20.90;14.80;;;;;;;5.92;87.81;94207.85;106681;1274;22529;-80
2023/11/11 06:50:21;;;;;;;17.10;12.70;;;;;;;5.90;87.88;94212.27;106655;1274;22534;-80
2023/11/11 06:52:50;;;;;;;17.50;12.90;;;;;;;5.87;88.07;94211.62;106726;1274;22712;-80
2023/11/11 06:55:18;;;;;;;19.00;14.10;;;;;;;5.88;87.97;94208.11;106628;1274;22733;-79
2023/11/11 06:57:46;;;;;;;21.60;14.20;;;;;;;5.86;87.92;94205.02;106672;1274;22785;-80
2023/11/11 07:00:18;;;;;;;22.00;14.30;;;;;;;5.86;87.55;94211.81;106673;1274;25539;-80
2023/11/11 07:02:47;;;;;;;29.60;19.50;;;;;;;5.87;87.84;94204.45;106716;1274;24282;-79
2023/11/11 07:05:16;;;;;;;33.30;20.30;;;;;;;5.96;88.12;94197.12;107038;1274;22531;-79
2023/11/11 07:07:44;;;;;;;18.60;12.80;;;;;;;6.06;88.09;94200.58;106668;1274;24254;-79
2023/11/11 07:10:12;;;;;;;23.10;14.20;;;;;;;6.11;87.65;94203.95;106617;1274;22531;-79
2023/11/11 07:12:41;;;;;;;17.70;12.50;;;;;;;6.19;87.72;94195.54;106620;1275;23886;-79
2023/11/11 07:15:10;;;;;;;13.00;9.80;;;;;;;6.27;87.81;94194.66;106758;1274;25229;-79
2023/11/11 07:17:42;;;;;;;13.40;9.80;;;;;;;6.37;87.46;94193.19;106664;1274;22529;-80
2023/11/11 07:20:19;;;;;;;12.40;9.00;;;;;;;6.45;87.31;94195.78;106630;1274;22726;-79
2023/11/11 07:22:54;;;;;;;13.10;8.60;;;;;;;6.48;86.55;94179.98;106826;1275;24411;-79
2023/11/11 07:25:24;;;;;;;12.40;8.20;;;;;;;6.45;86.60;94176.39;106642;1274;22642;-79
2023/11/11 07:27:52;;;;;;;13.20;9.20;;;;;;;6.46;86.48;94172.02;106663;1274;23022;-79
2023/11/11 07:30:20;;;;;;;13.80;8.90;;;;;;;6.51;86.56;94164.36;106614;1274;24404;-79
2023/11/11 07:32:49;;;;;;;12.40;8.80;;;;;;;6.55;86.38;94158.32;106960;1274;22524;-79
2023/11/11 07:35:29;;;;;;;12.70;9.00;;;;;;;6.52;86.35;94160.67;107053;1274;22529;-79
2023/11/11 07:37:57;;;;;;;11.60;8.70;;;;;;;6.51;86.43;94158.59;107011;1274;25376;-79
2023/11/11 07:40:25;;;;;;;16.30;9.20;;;;;;;6.54;86.64;94150.30;107012;1275;25566;-79
2023/11/11 07:42:55;;;;;;;14.80;10.20;;;;;;;6.51;86.54;94145.66;107035;1275;25490;-79
2023/11/11 07:45:25;;;;;;;13.50;8.90;;;;;;;6.47;86.58;94147.33;107042;1275;25348;-79
2023/11/11 07:47:55;;;;;;;14.30;9.70;;;;;;;6.44;86.62;94142.00;107053;1275;25005;-79
2023/11/11 07:50:25;;;;;;;14.30;9.50;;;;;;;6.40;86.47;94131.46;107102;1275;22530;-79
2023/11/11 07:52:55;;;;;;;12.90;9.40;;;;;;;6.37;86.74;94133.61;107086;1275;25426;-79
2023/11/11 07:55:23;;;;;;;11.10;8.70;;;;;;;6.39;86.69;94127.83;107015;1275;24399;-80
2023/11/11 07:57:52;;;;;;;11.60;9.00;;;;;;;6.41;86.51;94126.37;107098;1275;22554;-80
2023/11/11 08:00:24;;;;;;;11.50;8.30;;;;;;;6.45;86.19;94120.84;107008;1275;22540;-80
2023/11/11 08:02:53;;;;;;;13.80;9.00;;;;;;;6.45;85.80;94124.16;107016;1275;22517;-79
2023/11/11 08:05:27;;;;;;;14.70;9.10;;;;;;;6.51;86.06;94119.81;107069;1275;22553;-80
2023/11/11 08:07:56;;;;;;;47.20;32.20;;;;;;;6.56;85.64;94122.83;107072;1275;23519;-80
2023/11/11 08:10:42;;;;;;;44.00;23.90;;;;;;;6.62;86.16;94116.36;107091;1275;25359;-79
2023/11/11 08:13:10;;;;;;;26.50;20.80;;;;;;;6.67;86.14;94110.30;106877;1275;22469;-80
2023/11/11 08:15:42;;;;;;;47.40;35.50;;;;;;;6.72;86.24;94110.52;106677;1275;22738;-80
2023/11/11 08:18:11;;;;;;;54.00;42.10;;;;;;;6.81;86.06;94111.31;106675;1275;22655;-80
2023/11/11 08:20:39;;;;;;;32.70;26.60;;;;;;;6.92;86.45;94106.27;106626;1274;25476;-80
2023/11/11 08:23:07;;;;;;;25.50;15.10;;;;;;;7.10;86.60;94098.42;106643;1275;22528;-80
2023/11/11 08:25:37;;;;;;;22.10;12.90;;;;;;;7.22;85.92;94098.93;106509;1275;25306;-81
2023/11/11 08:28:05;;;;;;;16.70;10.70;;;;;;;7.27;85.91;94104.21;106625;1275;22539;-81
2023/11/11 08:30:33;;;;;;;12.80;9.30;;;;;;;7.31;85.90;94102.18;106601;1275;22534;-82
2023/11/11 08:33:03;;;;;;;14.30;10.20;;;;;;;7.37;86.21;94093.77;106685;1275;22544;-82
2023/11/11 08:35:32;;;;;;;11.00;9.00;;;;;;;7.50;86.31;94096.53;106642;1275;22551;-81
2023/11/11 08:38:00;;;;;;;13.30;9.10;;;;;;;7.60;85.82;94103.40;106708;1275;24242;-81
2023/11/11 08:40:28;;;;;;;16.30;13.10;;;;;;;7.64;85.22;94098.88;106623;1275;24227;-81
2023/11/11 08:42:57;;;;;;;12.90;10.10;;;;;;;7.68;84.99;94092.66;106596;1275;25347;-81
2023/11/11 08:45:25;;;;;;;28.40;21.80;;;;;;;7.70;84.78;94095.92;106680;1275;22529;-81
2023/11/11 08:47:53;;;;;;;40.70;32.80;;;;;;;7.71;84.60;94089.58;106625;1275;22527;-81
2023/11/11 08:50:22;;;;;;;99.90;82.10;;;;;;;7.71;84.42;94084.85;106704;1275;22684;-81
2023/11/11 08:52:50;;;;;;;14.30;11.30;;;;;;;7.75;84.53;94079.11;106700;1275;22529;-82
2023/11/11 08:55:19;;;;;;;18.00;12.80;;;;;;;7.75;84.27;94074.58;106662;1275;25344;-81
2023/11/11 08:57:48;;;;;;;31.70;26.10;;;;;;;7.71;84.25;94071.20;106680;1275;22548;-82
2023/11/11 09:00:16;;;;;;;27.10;17.50;;;;;;;7.75;84.59;94069.48;106724;1275;24275;-81
2023/11/11 09:02:45;;;;;;;15.30;12.10;;;;;;;7.73;84.28;94069.55;106651;1275;22568;-81
2023/11/11 09:05:13;;;;;;;19.10;13.50;;;;;;;7.71;84.18;94067.69;106721;1275;25363;-81
2023/11/11 09:07:41;;;;;;;16.30;10.10;;;;;;;7.76;84.21;94069.98;106706;1275;22525;-81
2023/11/11 09:10:09;;;;;;;21.70;12.10;;;;;;;7.80;84.21;94069.14;106646;1275;24402;-81
2023/11/11 09:12:37;;;;;;;13.20;8.90;;;;;;;7.80;83.89;94065.30;106631;1275;22551;-81
2023/11/11 09:15:06;;;;;;;11.00;7.70;;;;;;;7.76;83.37;94070.52;106718;1275;24349;-81
2023/11/11 09:17:35;;;;;;;18.10;12.70;;;;;;;7.70;83.61;94065.78;106655;1275;22657;-81
2023/11/11 09:20:07;;;;;;;17.20;15.10;;;;;;;7.68;83.59;94064.65;106676;1275;25347;-80
2023/11/11 09:22:37;;;;;;;15.60;12.90;;;;;;;7.69;83.79;94062.70;106537;1274;24228;-81
2023/11/11 09:25:06;;;;;;;18.20;12.70;;;;;;;7.76;84.36;94060.35;106627;1275;22527;-81
2023/11/11 09:27:34;;;;;;;20.30;13.10;;;;;;;7.84;84.45;94057.67;106788;1275;22522;-82
2023/11/11 09:30:05;;;;;;;16.60;10.10;;;;;;;7.85;84.52;94055.52;107021;1275;23903;-81
2023/11/11 09:32:33;;;;;;;8.90;7.50;;;;;;;7.92;84.77;94045.86;107096;1275;22528;-82
2023/11/11 09:35:03;;;;;;;12.30;8.20;;;;;;;8.04;85.00;94045.10;107080;1275;24341;-81
2023/11/11 09:37:32;;;;;;;8.90;7.00;;;;;;;8.12;84.76;94038.14;107056;1275;24314;-81
2023/11/11 09:40:18;;;;;;;13.30;9.00;;;;;;;8.18;84.36;94030.27;107022;1275;25263;-81
2023/11/11 09:43:04;;;;;;;10.30;8.20;;;;;;;8.30;84.55;94031.05;106936;1275;22646;-82
2023/11/11 09:45:33;;;;;;;10.20;7.50;;;;;;;8.45;84.80;94036.19;107002;1275;22650;-81
2023/11/11 09:48:02;;;;;;;12.00;7.00;;;;;;;8.52;84.06;94033.14;107026;1275;23151;-83
2023/11/11 09:50:31;;;;;;;18.00;12.30;;;;;;;8.61;84.19;94036.30;107061;1275;22604;-81
2023/11/11 09:53:02;;;;;;;8.20;6.50;;;;;;;8.64;83.94;94033.58;106810;1275;25308;-80
2023/11/11 09:55:33;;;;;;;8.80;6.60;;;;;;;8.68;83.75;94033.61;106754;1274;22656;-79
2023/11/11 09:58:03;;;;;;;7.20;5.70;;;;;;;8.67;82.63;94032.60;106709;1275;22614;-79
2023/11/11 10:00:32;;;;;;;8.60;6.40;;;;;;;8.56;82.51;94030.70;106630;1266;22535;-81
2023/11/11 10:03:02;;;;;;;10.00;7.50;;;;;;;8.48;82.83;94027.50;106692;1274;22531;-80
2023/11/11 10:05:31;;;;;;;9.30;7.40;;;;;;;8.42;82.95;94027.15;106527;1274;25263;-83
2023/11/11 10:07:59;;;;;;;9.20;7.20;;;;;;;8.39;83.24;94027.98;106708;1274;22673;-84
2023/11/11 10:10:29;;;;;;;8.80;7.00;;;;;;;8.40;83.79;94026.89;106766;1274;25627;-83
2023/11/11 10:12:58;;;;;;;9.10;7.30;;;;;;;8.40;83.61;94027.06;106670;1275;25383;-85
2023/11/11 10:15:27;;;;;;;10.60;8.20;;;;;;;8.33;83.42;94027.27;106611;1275;25401;-82
2023/11/11 10:17:59;;;;;;;21.30;8.80;;;;;;;8.28;83.65;94023.80;106921;1274;22647;-80
2023/11/11 10:20:30;;;;;;;12.30;7.80;;;;;;;8.21;84.00;94022.25;107042;1274;24275;-79
2023/11/11 10:22:59;;;;;;;10.90;8.10;;;;;;;8.16;84.10;94017.16;107067;1274;22526;-81
2023/11/11 10:25:27;;;;;;;11.40;7.70;;;;;;;8.12;84.12;94012.41;106914;1275;22585;-80
2023/11/11 10:27:57;;;;;;;12.20;8.70;;;;;;;8.11;84.42;94010.34;106877;1275;22538;-77
2023/11/11 10:30:26;;;;;;;11.40;8.50;;;;;;;8.12;84.55;94008.02;107094;1274;22648;-78
2023/11/11 10:32:56;;;;;;;12.00;8.50;;;;;;;8.08;85.01;94007.14;107027;1274;24314;-79
2023/11/11 10:35:25;;;;;;;11.10;8.20;;;;;;;8.01;85.19;94008.23;107064;1275;22537;-79
2023/11/11 10:37:54;;;;;;;14.10;11.50;;;;;;;7.99;85.66;94006.92;106923;1274;24324;-79
2023/11/11 10:40:22;;;;;;;11.30;8.90;;;;;;;7.98;86.01;94004.48;107081;1274;22533;-78
2023/11/11 10:42:51;;;;;;;11.30;9.10;;;;;;;7.99;86.33;94001.30;106840;1275;22524;-79
2023/11/11 10:45:19;;;;;;;12.10;9.20;;;;;;;8.04;85.94;94001.29;107046;1274;22544;-79
2023/11/11 10:47:47;;;;;;;10.20;8.00;;;;;;;8.09;85.76;94001.30;106790;1274;24385;-79
2023/11/11 10:50:17;;;;;;;11.00;8.70;;;;;;;8.09;85.85;93998.49;107017;1274;22537;-79
2023/11/11 10:52:47;;;;;;;11.00;9.00;;;;;;;8.12;85.77;94001.90;106827;1274;25629;-79
2023/11/11 10:55:16;;;;;;;9.30;7.70;;;;;;;8.12;85.74;94001.91;106698;1274;22617;-79
2023/11/11 10:57:46;;;;;;;10.40;8.10;;;;;;;8.13;85.94;93997.82;106720;1274;22545;-80
2023/11/11 11:00:20;;;;;;;11.80;8.50;;;;;;;8.10;86.26;94000.02;106758;1252;23787;-80
2023/11/11 11:02:53;;;;;;;11.00;8.40;;;;;;;8.08;86.52;94001.88;107043;1274;22533;-81
2023/11/11 11:05:50;;;;;;;11.20;9.30;;;;;;;8.06;86.74;94004.40;107065;1274;24221;-80
2023/11/11 11:09:00;;;;;;;13.10;10.10;;;;;;;8.06;86.61;94005.63;107084;1274;23888;-79
2023/11/11 11:11:37;;;;;;;15.70;11.30;;;;;;;8.07;86.87;94002.44;106773;1274;25504;-79
2023/11/11 11:14:15;;;;;;;14.30;9.60;;;;;;;8.14;86.99;94006.05;106723;1263;22643;-80
2023/11/11 11:16:43;;;;;;;11.80;8.30;;;;;;;8.17;86.66;94004.16;106678;1274;22537;-79
2023/11/11 11:19:15;;;;;;;10.30;7.70;;;;;;;8.19;86.48;94000.78;106687;1274;22638;-79
2023/11/11 11:21:43;;;;;;;11.10;8.00;;;;;;;8.20;86.35;93998.31;106978;1274;25389;-79
2023/11/11 11:24:12;;;;;;;9.90;7.90;;;;;;;8.23;86.43;93990.33;106994;1274;23908;-79
2023/11/11 11:26:42;;;;;;;9.50;7.50;;;;;;;8.28;86.33;93985.23;107005;1274;22531;-79
2023/11/11 11:29:14;;;;;;;9.50;7.20;;;;;;;8.34;86.30;93983.10;106861;1274;25533;-79
2023/11/11 11:32:09;;;;;;;8.70;6.90;;;;;;;8.36;86.12;93979.16;106658;1274;24442;-79
2023/11/11 11:34:40;;;;;;;11.00;8.30;;;;;;;8.43;85.98;93972.12;107067;1274;25380;-79
2023/11/11 11:37:10;;;;;;;13.00;9.40;;;;;;;8.44;85.58;93970.30;107010;1274;22761;-79